Time;durP1;ratioP1;P1;durP2;ratioP2;P2;SDS_P1;SDS_P2;PMS_P1;PMS_P2;Temp;Humidity;BMP_temperature;BMP_pressure;BME280_temperature;BME280_humidity;BME280_pressure;Samples;Min_cycle;Max_cycle;Signal;HPM_P1;HPM_P2
2024/02/27 00:00:03;;;;;;;;;;;;;;;18.90;61.47;100959.75;7388432;19;1504;-77
2024/02/27 00:02:31;;;;;;;;;;;;;;;18.88;61.58;100957.22;7390277;19;1671;-76
2024/02/27 00:05:02;;;;;;;;;;;;;;;18.88;61.77;100962.59;7388813;19;1459;-77
2024/02/27 00:07:31;;;;;;;;;;;;;;;18.85;61.96;100968.19;7389287;19;1143;-77
2024/02/27 00:09:59;;;;;;;;;;;;;;;18.83;61.87;100970.16;7389683;19;1672;-77
2024/02/27 00:12:28;;;;;;;;;;;;;;;18.87;61.63;100958.19;7388538;19;1667;-76
2024/02/27 00:14:56;;;;;;;;;;;;;;;18.79;61.84;100953.47;7386633;19;1850;-76
2024/02/27 00:17:25;;;;;;;;;;;;;;;18.84;61.85;100962.00;7390866;19;1837;-77
2024/02/27 00:19:53;;;;;;;;;;;;;;;18.81;61.75;100950.69;7395975;19;1838;-77
2024/02/27 00:22:24;;;;;;;;;;;;;;;18.77;61.87;100950.06;7398662;19;1587;-76
2024/02/27 00:24:52;;;;;;;;;;;;;;;18.70;61.95;100962.25;7401712;19;1665;-76
2024/02/27 00:27:21;;;;;;;;;;;;;;;18.70;62.22;100962.25;7400497;19;1912;-77
2024/02/27 00:29:49;;;;;;;;;;;;;;;18.71;61.90;100961.28;7394368;19;1765;-77
2024/02/27 00:32:17;;;;;;;;;;;;;;;18.73;62.04;100958.47;7396657;19;1751;-77
2024/02/27 00:34:46;;;;;;;;;;;;;;;18.69;61.96;100949.84;7395516;19;1841;-77
2024/02/27 00:37:14;;;;;;;;;;;;;;;18.80;61.79;100955.19;7396252;19;1665;-76
2024/02/27 00:39:45;;;;;;;;;;;;;;;18.74;61.76;100962.84;7396204;19;1091;-77
2024/02/27 00:42:14;;;;;;;;;;;;;;;18.68;61.79;100978.47;7386351;19;1525;-77
2024/02/27 00:44:45;;;;;;;;;;;;;;;18.76;61.92;100979.66;7399546;19;1487;-77
2024/02/27 00:47:13;;;;;;;;;;;;;;;18.74;61.88;100978.91;7398060;19;1777;-77
2024/02/27 00:49:42;;;;;;;;;;;;;;;18.68;61.92;100993.66;7399822;19;1471;-77
2024/02/27 00:52:11;;;;;;;;;;;;;;;18.73;61.58;100971.88;7398306;19;1470;-77
2024/02/27 00:54:39;;;;;;;;;;;;;;;18.77;61.64;100995.59;7396090;19;1885;-77
2024/02/27 00:57:10;;;;;;;;;;;;;;;18.71;61.87;100969.31;7397153;19;1471;-77
2024/02/27 00:59:38;;;;;;;;;;;;;;;18.74;61.70;100995.00;7400785;19;1236;-76
2024/02/27 01:02:07;;;;;;;;;;;;;;;18.59;62.09;100983.75;7408221;19;1448;-77
2024/02/27 01:04:35;;;;;;;;;;;;;;;18.61;61.96;100971.06;7408734;19;1613;-76
2024/02/27 01:07:03;;;;;;;;;;;;;;;18.64;62.01;100998.47;7398737;19;1821;-77
2024/02/27 01:09:33;;;;;;;;;;;;;;;18.56;62.07;100962.56;7396322;19;1482;-77
2024/02/27 01:12:01;;;;;;;;;;;;;;;18.58;62.28;100985.59;7397719;19;1511;-76
2024/02/27 01:14:32;;;;;;;;;;;;;;;18.56;62.12;100979.50;7397660;19;1850;-76
2024/02/27 01:17:01;;;;;;;;;;;;;;;18.59;62.20;100989.94;7394926;19;1551;-77
2024/02/27 01:19:30;;;;;;;;;;;;;;;18.62;62.05;100995.06;7398545;19;1565;-76
2024/02/27 01:22:00;;;;;;;;;;;;;;;18.67;62.00;100994.66;7397357;19;1656;-76
2024/02/27 01:24:28;;;;;;;;;;;;;;;18.57;62.04;100986.53;7397573;19;1585;-77
2024/02/27 01:26:56;;;;;;;;;;;;;;;18.68;61.84;101015.97;7393843;19;1488;-76
2024/02/27 01:29:25;;;;;;;;;;;;;;;18.71;61.68;100995.28;7393999;19;1227;-76
2024/02/27 01:31:57;;;;;;;;;;;;;;;18.69;61.82;101003.44;7394893;19;1761;-76
2024/02/27 01:34:26;;;;;;;;;;;;;;;18.67;62.00;100992.00;7393709;19;1806;-76
2024/02/27 01:36:52;;;;;;;;;;;;;;;18.68;61.69;101009.75;7394486;19;1530;-76
2024/02/27 01:39:20;;;;;;;;;;;;;;;18.62;61.99;101008.44;7393000;19;1405;-77
2024/02/27 01:41:51;;;;;;;;;;;;;;;18.69;61.92;101006.09;7379730;19;1465;-77
2024/02/27 01:44:19;;;;;;;;;;;;;;;18.36;62.64;101009.72;7392677;19;1239;-77
2024/02/27 01:46:48;;;;;;;;;;;;;;;18.49;62.53;101018.47;7392718;19;1867;-77
2024/02/27 01:49:19;;;;;;;;;;;;;;;18.44;62.59;101005.47;7393088;19;1631;-76
2024/02/27 01:51:49;;;;;;;;;;;;;;;18.48;62.45;101022.09;7393517;19;1865;-77
2024/02/27 01:54:19;;;;;;;;;;;;;;;18.55;62.33;101015.28;7391193;19;1813;-77
2024/02/27 01:56:48;;;;;;;;;;;;;;;18.55;62.32;101026.00;7392930;19;1748;-77
2024/02/27 01:59:18;;;;;;;;;;;;;;;18.65;61.97;101018.06;7392609;19;1393;-77
2024/02/27 02:01:47;;;;;;;;;;;;;;;18.60;62.19;101017.56;7391672;19;1410;-77
2024/02/27 02:04:15;;;;;;;;;;;;;;;18.64;62.18;101025.25;7389733;19;1568;-76
2024/02/27 02:06:47;;;;;;;;;;;;;;;18.61;62.28;101025.47;7388520;19;1689;-77
2024/02/27 02:09:16;;;;;;;;;;;;;;;18.56;62.34;101032.19;7390774;19;1673;-76
2024/02/27 02:11:45;;;;;;;;;;;;;;;18.41;62.73;101023.59;7391424;19;1484;-76
2024/02/27 02:14:13;;;;;;;;;;;;;;;18.88;61.60;101016.19;7392635;19;1838;-76
2024/02/27 02:16:42;;;;;;;;;;;;;;;19.59;59.95;101026.22;7388947;19;1767;-76
2024/02/27 02:19:10;;;;;;;;;;;;;;;19.84;59.58;101033.88;7391122;19;1452;-76
2024/02/27 02:21:41;;;;;;;;;;;;;;;20.08;59.06;101031.88;7391495;19;1516;-77
2024/02/27 02:24:10;;;;;;;;;;;;;;;20.22;58.57;101026.94;7390435;19;1474;-76
2024/02/27 02:26:39;;;;;;;;;;;;;;;20.33;58.29;101023.28;7391811;19;1653;-77
2024/02/27 02:29:07;;;;;;;;;;;;;;;20.39;58.30;101024.56;7392714;19;1564;-76
2024/02/27 02:31:36;;;;;;;;;;;;;;;20.41;58.34;101030.66;7394139;19;1294;-76
2024/02/27 02:34:04;;;;;;;;;;;;;;;20.43;58.00;101034.06;7393165;19;1675;-78
2024/02/27 02:36:33;;;;;;;;;;;;;;;20.44;58.20;101033.09;7396029;19;1632;-76
2024/02/27 02:39:04;;;;;;;;;;;;;;;20.53;58.00;101043.00;7395345;19;1334;-76
2024/02/27 02:41:32;;;;;;;;;;;;;;;20.61;57.98;101051.25;7379764;19;1544;-77
2024/02/27 02:44:00;;;;;;;;;;;;;;;20.62;57.83;101057.47;7393172;19;1927;-76
2024/02/27 02:46:29;;;;;;;;;;;;;;;20.62;57.79;101042.19;7391750;19;1211;-76
2024/02/27 02:49:00;;;;;;;;;;;;;;;20.60;58.00;101036.09;7391731;19;1525;-77
2024/02/27 02:51:30;;;;;;;;;;;;;;;20.69;57.81;101049.69;7390426;19;1527;-77
2024/02/27 02:53:58;;;;;;;;;;;;;;;20.75;57.82;101052.69;7390546;19;1955;-76
2024/02/27 02:56:30;;;;;;;;;;;;;;;20.87;57.60;101042.66;7389478;19;1853;-76
2024/02/27 02:58:58;;;;;;;;;;;;;;;20.81;57.76;101046.75;7389545;19;1790;-76
2024/02/27 03:01:27;;;;;;;;;;;;;;;20.49;58.52;101038.88;7390840;19;1394;-76
2024/02/27 03:03:55;;;;;;;;;;;;;;;20.30;59.10;101041.53;7391428;19;1577;-76
2024/02/27 03:06:23;;;;;;;;;;;;;;;20.36;59.08;101031.09;7389786;19;1434;-76
2024/02/27 03:08:52;;;;;;;;;;;;;;;20.40;58.80;101026.28;7392515;19;1642;-77
2024/02/27 03:11:20;;;;;;;;;;;;;;;20.40;58.79;101040.56;7393239;19;1028;-77
2024/02/27 03:13:51;;;;;;;;;;;;;;;20.37;59.03;101074.91;7389443;19;1841;-77
2024/02/27 03:16:19;;;;;;;;;;;;;;;20.32;59.27;101051.16;7387330;19;1849;-77
2024/02/27 03:18:48;;;;;;;;;;;;;;;20.35;59.06;101039.28;7392786;19;1477;-77
2024/02/27 03:21:16;;;;;;;;;;;;;;;20.39;59.00;101041.56;7389627;19;1590;-77
2024/02/27 03:23:45;;;;;;;;;;;;;;;20.31;59.26;101033.31;7391416;19;1565;-77
2024/02/27 03:26:15;;;;;;;;;;;;;;;20.32;59.25;101028.81;7390106;19;1832;-76
2024/02/27 03:28:43;;;;;;;;;;;;;;;20.34;59.10;101038.44;7389591;19;1860;-77
2024/02/27 03:31:14;;;;;;;;;;;;;;;20.33;59.34;101041.25;7389820;19;1828;-77
2024/02/27 03:33:43;;;;;;;;;;;;;;;20.33;59.32;101035.88;7389306;19;1489;-76
2024/02/27 03:36:12;;;;;;;;;;;;;;;20.35;59.12;101017.78;7388385;19;1832;-76
2024/02/27 03:38:41;;;;;;;;;;;;;;;20.33;59.46;101022.44;7390075;19;1785;-77
2024/02/27 03:41:13;;;;;;;;;;;;;;;20.41;59.20;101033.34;7388388;19;1823;-77
2024/02/27 03:43:42;;;;;;;;;;;;;;;20.42;59.14;101035.91;7375600;19;2565;-76
2024/02/27 03:46:11;;;;;;;;;;;;;;;20.43;59.23;101032.25;7389047;19;1705;-77
2024/02/27 03:48:42;;;;;;;;;;;;;;;20.50;58.97;101032.53;7389847;19;1566;-77
2024/02/27 03:51:10;;;;;;;;;;;;;;;20.50;58.89;101029.84;7388943;19;1333;-76
2024/02/27 03:53:39;;;;;;;;;;;;;;;20.47;58.88;101038.16;7395130;19;1457;-77
2024/02/27 03:56:07;;;;;;;;;;;;;;;20.44;59.15;101028.56;7400973;19;1850;-77
2024/02/27 03:58:36;;;;;;;;;;;;;;;20.45;59.21;101029.38;7403367;19;1661;-77
2024/02/27 04:01:05;;;;;;;;;;;;;;;20.21;59.55;101027.94;7402665;19;1252;-78
2024/02/27 04:03:33;;;;;;;;;;;;;;;19.97;59.85;101030.94;7403163;19;1525;-77
2024/02/27 04:06:04;;;;;;;;;;;;;;;19.66;60.68;101038.16;7401690;19;1397;-76
2024/02/27 04:08:32;;;;;;;;;;;;;;;19.57;60.88;101033.56;7402924;19;1480;-77
2024/02/27 04:11:01;;;;;;;;;;;;;;;19.51;60.91;101044.81;7400917;19;1837;-77
2024/02/27 04:13:29;;;;;;;;;;;;;;;19.44;60.97;101050.72;7399712;19;1591;-77
2024/02/27 04:15:58;;;;;;;;;;;;;;;19.42;61.00;101036.59;7402550;19;1831;-77
2024/02/27 04:18:27;;;;;;;;;;;;;;;19.37;61.00;101038.81;7404175;19;1085;-76
2024/02/27 04:20:55;;;;;;;;;;;;;;;19.32;61.04;101049.09;7403585;19;1845;-77
2024/02/27 04:23:26;;;;;;;;;;;;;;;19.32;61.00;101051.78;7403168;19;1957;-77
2024/02/27 04:25:55;;;;;;;;;;;;;;;19.24;61.27;101044.38;7403026;19;1623;-77
2024/02/27 04:28:23;;;;;;;;;;;;;;;19.24;61.31;101051.59;7403208;19;1400;-77
2024/02/27 04:30:51;;;;;;;;;;;;;;;19.16;61.45;101046.88;7402331;19;1615;-77
2024/02/27 04:33:20;;;;;;;;;;;;;;;19.07;61.86;101051.16;7401500;19;1840;-77
2024/02/27 04:35:48;;;;;;;;;;;;;;;19.33;61.37;101060.66;7399850;19;1839;-76
2024/02/27 04:38:16;;;;;;;;;;;;;;;19.57;61.17;101060.38;7402611;19;1528;-77
2024/02/27 04:40:47;;;;;;;;;;;;;;;19.67;60.86;101051.41;7401068;19;1666;-76
2024/02/27 04:43:16;;;;;;;;;;;;;;;19.52;61.13;101063.47;7388976;19;1427;-77
2024/02/27 04:45:44;;;;;;;;;;;;;;;19.38;61.25;101066.50;7400079;19;1508;-77
2024/02/27 04:48:12;;;;;;;;;;;;;;;19.30;61.26;101069.81;7402692;19;1599;-77
2024/02/27 04:50:41;;;;;;;;;;;;;;;19.26;61.47;101073.75;7401900;19;1873;-76
2024/02/27 04:53:09;;;;;;;;;;;;;;;19.14;61.55;101064.91;7401866;19;1841;-78
2024/02/27 04:55:38;;;;;;;;;;;;;;;19.12;61.75;101063.31;7402545;19;1866;-77
2024/02/27 04:58:08;;;;;;;;;;;;;;;19.05;61.72;101069.19;7402127;19;1664;-77
2024/02/27 05:00:37;;;;;;;;;;;;;;;19.14;61.72;101089.03;7401645;19;1714;-77
2024/02/27 05:03:06;;;;;;;;;;;;;;;19.31;61.55;101076.88;7400726;19;1831;-77
2024/02/27 05:05:34;;;;;;;;;;;;;;;19.44;61.35;101082.06;7394591;19;1385;-77
2024/02/27 05:08:03;;;;;;;;;;;;;;;19.32;61.65;101070.53;7393825;19;1510;-77
2024/02/27 05:10:31;;;;;;;;;;;;;;;19.22;61.77;101083.88;7394081;19;1603;-76
2024/02/27 05:13:00;;;;;;;;;;;;;;;19.18;61.94;101086.94;7391885;19;1408;-77
2024/02/27 05:15:31;;;;;;;;;;;;;;;19.16;62.07;101092.44;7392857;19;1846;-76
2024/02/27 05:18:01;;;;;;;;;;;;;;;19.11;61.88;101091.97;7393041;19;1310;-76
2024/02/27 05:20:29;;;;;;;;;;;;;;;19.03;62.10;101095.28;7394460;19;1460;-76
2024/02/27 05:22:58;;;;;;;;;;;;;;;19.22;62.11;101093.75;7392584;19;1232;-76
2024/02/27 05:25:26;;;;;;;;;;;;;;;19.42;61.80;101100.13;7392936;19;1297;-76
2024/02/27 05:27:54;;;;;;;;;;;;;;;19.52;61.27;101086.75;7392467;19;1542;-76
2024/02/27 05:30:23;;;;;;;;;;;;;;;19.38;61.51;101091.47;7389159;19;1656;-76
2024/02/27 05:32:55;;;;;;;;;;;;;;;19.31;61.38;101102.84;7390232;19;1396;-79
2024/02/27 05:35:23;;;;;;;;;;;;;;;19.11;62.07;101083.91;7391824;19;1846;-77
2024/02/27 05:37:51;;;;;;;;;;;;;;;19.07;62.10;101111.97;7393361;19;1527;-78
2024/02/27 05:40:20;;;;;;;;;;;;;;;18.89;62.54;101108.97;7391249;19;1693;-78
2024/02/27 05:42:48;;;;;;;;;;;;;;;18.79;62.41;101114.22;7376255;19;1484;-77
2024/02/27 05:45:17;;;;;;;;;;;;;;;18.96;62.04;101131.63;7391285;19;1454;-78
2024/02/27 05:47:46;;;;;;;;;;;;;;;19.11;61.50;101116.09;7393091;19;1630;-78
2024/02/27 05:50:17;;;;;;;;;;;;;;;18.96;62.09;101128.94;7390551;19;1429;-78
2024/02/27 05:52:45;;;;;;;;;;;;;;;19.02;61.83;101125.75;7390483;19;1388;-78
2024/02/27 05:55:13;;;;;;;;;;;;;;;19.01;61.85;101142.78;7392076;19;1457;-77
2024/02/27 05:57:42;;;;;;;;;;;;;;;18.92;61.72;101140.91;7390078;19;1500;-77
2024/02/27 06:00:11;;;;;;;;;;;;;;;18.89;62.05;101135.78;7392765;19;1336;-78
2024/02/27 06:02:40;;;;;;;;;;;;;;;19.04;61.52;101142.56;7390289;19;1460;-77
2024/02/27 06:05:09;;;;;;;;;;;;;;;19.02;61.50;101135.59;7392840;19;1469;-77
2024/02/27 06:07:39;;;;;;;;;;;;;;;18.97;61.79;101160.09;7388669;19;1664;-78
2024/02/27 06:10:08;;;;;;;;;;;;;;;19.01;61.62;101152.69;7388440;19;1603;-78
2024/02/27 06:12:37;;;;;;;;;;;;;;;18.91;61.36;101149.91;7389884;19;1331;-77
2024/02/27 06:15:05;;;;;;;;;;;;;;;18.85;61.53;101134.31;7389414;19;985;-79
2024/02/27 06:17:34;;;;;;;;;;;;;;;18.91;61.70;101149.91;7383862;19;1859;-77
2024/02/27 06:20:09;;;;;;;;;;;;;;;18.99;61.57;101147.44;7388876;19;1536;-77
2024/02/27 06:22:37;;;;;;;;;;;;;;;18.93;61.28;101147.94;7390916;19;1418;-78
2024/02/27 06:25:06;;;;;;;;;;;;;;;18.99;61.36;101147.44;7392390;19;1725;-77
2024/02/27 06:27:35;;;;;;;;;;;;;;;18.82;61.06;101151.50;7390326;19;1742;-77
2024/02/27 06:30:03;;;;;;;;;;;;;;;18.85;61.48;101145.03;7389710;19;1752;-78
2024/02/27 06:32:32;;;;;;;;;;;;;;;18.98;60.99;101147.56;7395368;19;1733;-78
2024/02/27 06:35:00;;;;;;;;;;;;;;;18.92;61.33;101145.38;7394166;19;1583;-78
2024/02/27 06:37:29;;;;;;;;;;;;;;;18.87;61.17;101156.47;7392759;19;1868;-78
2024/02/27 06:40:00;;;;;;;;;;;;;;;18.95;61.00;101156.72;7393809;19;1571;-78
2024/02/27 06:42:33;;;;;;;;;;;;;;;18.78;61.28;101154.50;7387545;19;1125;-78
2024/02/27 06:45:02;;;;;;;;;;;;;;;18.81;61.61;101146.28;7391357;19;1551;-77
2024/02/27 06:47:30;;;;;;;;;;;;;;;19.03;60.97;101148.88;7391226;19;1647;-78
2024/02/27 06:49:59;;;;;;;;;;;;;;;18.86;61.17;101166.34;7392789;19;1535;-77
2024/02/27 06:52:28;;;;;;;;;;;;;;;18.81;61.52;101165.03;7394343;19;1025;-78
2024/02/27 06:54:56;;;;;;;;;;;;;;;18.92;61.13;101188.25;7394043;19;1912;-78
2024/02/27 06:57:27;;;;;;;;;;;;;;;18.89;61.15;101159.88;7393438;19;1846;-78
2024/02/27 06:59:55;;;;;;;;;;;;;;;18.83;61.22;101174.63;7393316;19;1117;-77
2024/02/27 07:02:24;;;;;;;;;;;;;;;18.98;61.11;101166.31;7393390;19;1492;-77
2024/02/27 07:04:52;;;;;;;;;;;;;;;18.86;61.42;101195.84;7393586;19;1478;-78
2024/02/27 07:07:20;;;;;;;;;;;;;;;18.80;61.44;101190.09;7392946;19;1494;-77
2024/02/27 07:09:49;;;;;;;;;;;;;;;18.78;61.34;101178.63;7392241;19;1421;-76
2024/02/27 07:12:17;;;;;;;;;;;;;;;18.87;60.74;101194.00;7393628;19;1711;-77
2024/02/27 07:14:48;;;;;;;;;;;;;;;18.85;61.15;101193.28;7394132;19;1031;-77
2024/02/27 07:17:16;;;;;;;;;;;;;;;19.12;60.80;101192.00;7393446;19;1845;-77
2024/02/27 07:19:46;;;;;;;;;;;;;;;19.23;60.24;101184.75;7394382;19;1818;-77
2024/02/27 07:22:14;;;;;;;;;;;;;;;19.24;60.37;101177.59;7391559;19;1820;-77
2024/02/27 07:24:42;;;;;;;;;;;;;;;19.18;60.53;101178.06;7395068;19;1617;-77
2024/02/27 07:27:11;;;;;;;;;;;;;;;19.01;60.85;101171.44;7391253;19;1917;-77
2024/02/27 07:29:40;;;;;;;;;;;;;;;18.95;60.97;101174.63;7392763;19;1649;-76
2024/02/27 07:32:12;;;;;;;;;;;;;;;19.00;61.15;101192.03;7394600;19;1425;-77
2024/02/27 07:34:42;;;;;;;;;;;;;;;19.24;60.49;101183.81;7394250;19;2082;-77
2024/02/27 07:37:12;;;;;;;;;;;;;;;19.21;60.66;101186.72;7396239;19;1822;-77
2024/02/27 07:39:40;;;;;;;;;;;;;;;19.22;60.68;101175.03;7399461;19;1857;-78
2024/02/27 07:42:09;;;;;;;;;;;;;;;19.15;60.79;101189.06;7400175;19;1864;-77
2024/02/27 07:44:37;;;;;;;;;;;;;;;19.10;60.79;101183.22;7387073;19;2040;-77
2024/02/27 07:47:05;;;;;;;;;;;;;;;19.05;60.36;101192.50;7398753;19;1839;-76
2024/02/27 07:49:36;;;;;;;;;;;;;;;19.33;60.05;101179.50;7397354;19;1418;-77
2024/02/27 07:52:05;;;;;;;;;;;;;;;19.37;59.93;101194.34;7393702;19;1564;-77
2024/02/27 07:54:35;;;;;;;;;;;;;;;19.27;60.30;101193.41;7397835;19;1512;-77
2024/02/27 07:57:06;;;;;;;;;;;;;;;19.26;60.50;101187.22;7396287;19;1851;-76
2024/02/27 07:59:35;;;;;;;;;;;;;;;19.16;60.59;101180.91;7401004;19;1451;-77
2024/02/27 08:02:04;;;;;;;;;;;;;;;19.19;60.62;101196.72;7400250;19;1625;-77
2024/02/27 08:04:32;;;;;;;;;;;;;;;19.13;60.72;101201.75;7397409;19;1597;-76
2024/02/27 08:07:03;;;;;;;;;;;;;;;19.33;60.08;101189.38;7399739;19;1724;-76
2024/02/27 08:09:33;;;;;;;;;;;;;;;19.50;59.79;101212.09;7398506;19;1726;-77
2024/02/27 08:12:01;;;;;;;;;;;;;;;19.38;59.94;101197.91;7399574;19;1215;-77
2024/02/27 08:14:32;;;;;;;;;;;;;;;19.63;59.50;101194.84;7394510;19;1433;-76
2024/02/27 08:17:05;;;;;;;;;;;;;;;19.90;58.42;101193.53;7399248;19;1861;-77
2024/02/27 08:19:34;;;;;;;;;;;;;;;19.99;57.52;101190.03;7398496;19;1563;-77
2024/02/27 08:22:06;;;;;;;;;;;;;;;20.34;56.72;101209.47;7394515;19;1729;-76
2024/02/27 08:24:34;;;;;;;;;;;;;;;20.45;56.28;101204.00;7394129;19;1573;-77
2024/02/27 08:27:03;;;;;;;;;;;;;;;20.55;56.08;101212.97;7394892;19;1580;-76
2024/02/27 08:29:31;;;;;;;;;;;;;;;20.55;56.44;101199.56;7395892;19;1110;-77
2024/02/27 08:31:59;;;;;;;;;;;;;;;20.66;56.05;101220.13;7386521;19;1640;-76
2024/02/27 08:34:28;;;;;;;;;;;;;;;20.65;56.14;101216.59;7381968;19;1014;-76
2024/02/27 08:36:56;;;;;;;;;;;;;;;20.68;56.25;101217.31;7383388;19;1838;-77
2024/02/27 08:39:27;;;;;;;;;;;;;;;20.75;56.15;101207.69;7389666;19;1552;-76
2024/02/27 08:41:55;;;;;;;;;;;;;;;20.79;56.55;101225.25;7395104;19;1865;-76
2024/02/27 08:44:24;;;;;;;;;;;;;;;20.77;56.29;101208.41;7381338;19;1281;-77
2024/02/27 08:46:53;;;;;;;;;;;;;;;20.79;56.45;101214.50;7392242;19;1264;-76
2024/02/27 08:49:21;;;;;;;;;;;;;;;20.79;56.72;101226.13;7392783;19;1583;-76
2024/02/27 08:51:50;;;;;;;;;;;;;;;20.82;56.67;101224.97;7392733;19;1813;-76
2024/02/27 08:54:18;;;;;;;;;;;;;;;20.81;56.54;101202.63;7392873;19;1496;-76
2024/02/27 08:56:50;;;;;;;;;;;;;;;20.79;56.09;101209.13;7390860;19;2445;-77
2024/02/27 08:59:18;;;;;;;;;;;;;;;20.73;55.68;101210.53;7394750;19;1464;-77
2024/02/27 09:01:47;;;;;;;;;;;;;;;20.73;55.86;101215.91;7394476;19;1476;-77
2024/02/27 09:04:15;;;;;;;;;;;;;;;20.70;55.79;101199.19;7394456;19;1579;-77
2024/02/27 09:06:44;;;;;;;;;;;;;;;20.78;55.70;101226.25;7396309;19;1500;-78
2024/02/27 09:09:13;;;;;;;;;;;;;;;20.86;55.32;101215.66;7396351;19;1698;-76
2024/02/27 09:11:42;;;;;;;;;;;;;;;20.86;55.51;101210.28;7396890;19;1642;-77
2024/02/27 09:14:13;;;;;;;;;;;;;;;20.89;55.39;101215.41;7397115;19;1010;-79
2024/02/27 09:16:42;;;;;;;;;;;;;;;20.92;55.23;101215.09;7396684;19;1838;-77
2024/02/27 09:19:10;;;;;;;;;;;;;;;20.83;55.09;101210.53;7396912;19;1479;-77
2024/02/27 09:21:38;;;;;;;;;;;;;;;20.73;55.17;101206.97;7396145;19;1580;-78
2024/02/27 09:24:07;;;;;;;;;;;;;;;20.74;55.04;101224.81;7397126;19;1597;-78
2024/02/27 09:26:35;;;;;;;;;;;;;;;20.72;55.14;101234.84;7396624;19;1454;-78
2024/02/27 09:29:04;;;;;;;;;;;;;;;20.12;54.93;101125.41;7396632;19;1028;-78
2024/02/27 09:31:35;;;;;;;;;;;;;;;20.68;55.14;101225.38;7396886;19;1777;-77
2024/02/27 09:34:06;;;;;;;;;;;;;;;20.74;55.06;101238.25;7395724;19;1492;-77
2024/02/27 09:36:34;;;;;;;;;;;;;;;20.70;55.11;101215.31;7392148;19;1837;-77
2024/02/27 09:39:03;;;;;;;;;;;;;;;20.74;55.25;101222.13;7396113;19;1614;-77
2024/02/27 09:41:38;;;;;;;;;;;;;;;20.78;55.06;101224.41;7395329;19;1718;-77
2024/02/27 09:44:06;;;;;;;;;;;;;;;20.77;54.79;101213.78;7380809;19;1187;-77
2024/02/27 09:46:37;;;;;;;;;;;;;;;20.77;55.09;101232.59;7394995;19;1042;-78
2024/02/27 09:49:06;;;;;;;;;;;;;;;20.75;55.28;101213.94;7393687;19;1456;-77
2024/02/27 09:51:36;;;;;;;;;;;;;;;20.80;55.01;101217.06;7393448;19;1829;-78
2024/02/27 09:54:05;;;;;;;;;;;;;;;20.76;54.98;101215.63;7394534;19;1555;-77
2024/02/27 09:56:33;;;;;;;;;;;;;;;20.75;55.23;101215.75;7394000;19;1758;-76
2024/02/27 09:59:02;;;;;;;;;;;;;;;20.75;55.24;101224.69;7393264;19;1610;-77
2024/02/27 10:01:31;;;;;;;;;;;;;;;20.78;55.09;101218.19;7393351;19;1738;-77
2024/02/27 10:04:03;;;;;;;;;;;;;;;20.81;55.09;101234.03;7393049;19;1511;-77
2024/02/27 10:06:34;;;;;;;;;;;;;;;20.82;55.11;101230.38;7392800;19;1493;-76
2024/02/27 10:09:03;;;;;;;;;;;;;;;20.82;55.05;101241.13;7391826;19;1400;-79
2024/02/27 10:11:31;;;;;;;;;;;;;;;20.80;55.05;101219.75;7394788;19;1388;-77
2024/02/27 10:14:01;;;;;;;;;;;;;;;20.81;55.18;101212.50;7395081;19;1063;-77
2024/02/27 10:16:29;;;;;;;;;;;;;;;20.88;54.99;101210.16;7392787;19;1501;-77
2024/02/27 10:18:58;;;;;;;;;;;;;;;20.89;54.81;101219.91;7391164;19;1895;-77
2024/02/27 10:21:28;;;;;;;;;;;;;;;20.87;55.15;101212.00;7392014;19;1737;-77
2024/02/27 10:23:57;;;;;;;;;;;;;;;20.87;54.93;101220.06;7393711;19;1665;-79
2024/02/27 10:26:25;;;;;;;;;;;;;;;20.85;54.93;101209.44;7391172;19;1752;-77
2024/02/27 10:28:54;;;;;;;;;;;;;;;20.85;55.11;101203.22;7392820;19;1350;-77
2024/02/27 10:31:22;;;;;;;;;;;;;;;20.90;54.71;101210.88;7391001;19;1675;-77
2024/02/27 10:33:53;;;;;;;;;;;;;;;20.83;55.08;101213.22;7392739;19;1313;-76
2024/02/27 10:36:21;;;;;;;;;;;;;;;20.91;54.92;101205.34;7391076;19;1411;-77
2024/02/27 10:38:52;;;;;;;;;;;;;;;20.94;54.91;101196.16;7391878;19;2006;-77
2024/02/27 10:41:22;;;;;;;;;;;;;;;20.93;55.23;101195.31;7390149;19;1931;-77
2024/02/27 10:43:50;;;;;;;;;;;;;;;21.02;55.09;101199.84;7376549;19;1550;-77
2024/02/27 10:46:19;;;;;;;;;;;;;;;21.05;55.14;101199.59;7392081;19;1684;-77
2024/02/27 10:48:47;;;;;;;;;;;;;;;21.10;55.13;101206.38;7392337;19;1645;-77
2024/02/27 10:51:16;;;;;;;;;;;;;;;21.02;55.46;101183.72;7392926;19;1866;-78
2024/02/27 10:53:46;;;;;;;;;;;;;;;21.04;55.44;101187.13;7391597;19;1767;-77
2024/02/27 10:56:17;;;;;;;;;;;;;;;21.13;55.05;101190.81;7392858;19;1227;-77
2024/02/27 10:58:47;;;;;;;;;;;;;;;20.75;56.08;101191.56;7390255;19;1860;-77
2024/02/27 11:01:16;;;;;;;;;;;;;;;20.21;56.28;101193.56;7392379;19;1278;-78
2024/02/27 11:03:47;;;;;;;;;;;;;;;20.01;54.87;101184.56;7389929;19;1750;-77
2024/02/27 11:06:17;;;;;;;;;;;;;;;19.75;54.42;101187.63;7393018;19;1173;-77
2024/02/27 11:08:45;;;;;;;;;;;;;;;19.68;54.31;101199.84;7392355;19;1033;-77
2024/02/27 11:11:16;;;;;;;;;;;;;;;19.55;53.89;101194.66;7391318;19;1212;-77
2024/02/27 11:13:47;;;;;;;;;;;;;;;19.73;53.35;101181.53;7391937;19;1747;-78
2024/02/27 11:16:16;;;;;;;;;;;;;;;19.74;54.75;101185.94;7390767;19;1742;-78
2024/02/27 11:18:47;;;;;;;;;;;;;;;19.66;54.73;101185.72;7390887;19;1842;-77
2024/02/27 11:21:16;;;;;;;;;;;;;;;19.65;54.79;101182.16;7389688;19;1548;-77
2024/02/27 11:23:44;;;;;;;;;;;;;;;19.61;54.70;101186.06;7389061;19;1546;-77
2024/02/27 11:26:13;;;;;;;;;;;;;;;19.60;55.11;101173.66;7382832;19;1480;-77
2024/02/27 11:28:45;;;;;;;;;;;;;;;19.53;53.64;101171.63;7389083;19;1546;-77
2024/02/27 11:31:13;;;;;;;;;;;;;;;19.64;53.82;101174.25;7380211;19;1481;-78
2024/02/27 11:33:45;;;;;;;;;;;;;;;20.09;52.65;101184.72;7388405;19;1388;-76
2024/02/27 11:36:13;;;;;;;;;;;;;;;20.40;51.63;101171.34;7385853;19;1526;-77
2024/02/27 11:38:44;;;;;;;;;;;;;;;20.66;49.47;101156.47;7385626;19;1849;-77
2024/02/27 11:41:14;;;;;;;;;;;;;;;20.55;49.75;101153.88;7386600;19;1537;-77
2024/02/27 11:43:46;;;;;;;;;;;;;;;20.61;49.85;101157.84;7385824;19;1461;-77
2024/02/27 11:46:29;;;;;;;;;;;;;;;20.57;50.79;101156.41;7381993;19;1691;-77
2024/02/27 11:48:58;;;;;;;;;;;;;;;20.80;50.31;101159.75;7389748;19;1548;-77
2024/02/27 11:51:27;;;;;;;;;;;;;;;20.96;49.45;101154.69;7392646;19;1543;-77
2024/02/27 11:53:56;;;;;;;;;;;;;;;20.98;49.85;101150.03;7392175;19;1561;-77
2024/02/27 11:56:24;;;;;;;;;;;;;;;20.88;50.04;101149.16;7389457;19;1469;-78
2024/02/27 11:58:55;;;;;;;;;;;;;;;20.87;50.76;101158.22;7391099;19;1845;-78
2024/02/27 12:01:25;;;;;;;;;;;;;;;20.68;50.55;101155.50;7390470;19;1362;-78
2024/02/27 12:03:54;;;;;;;;;;;;;;;21.17;49.52;101149.22;7387739;19;1276;-78
2024/02/27 12:06:22;;;;;;;;;;;;;;;21.30;49.72;101154.31;7390157;19;1643;-78
2024/02/27 12:08:52;;;;;;;;;;;;;;;21.49;49.87;101153.50;7388785;19;1594;-78
2024/02/27 12:11:23;;;;;;;;;;;;;;;21.62;49.75;101143.25;7390775;19;1507;-78
2024/02/27 12:13:52;;;;;;;;;;;;;;;21.74;49.78;101145.81;7391630;19;1524;-78
2024/02/27 12:16:29;;;;;;;;;;;;;;;21.72;49.98;101137.03;7391963;19;1939;-78
2024/02/27 12:19:00;;;;;;;;;;;;;;;21.68;50.47;101147.22;7394256;19;1849;-78
2024/02/27 12:21:31;;;;;;;;;;;;;;;21.74;50.38;101146.66;7396663;19;1468;-78
2024/02/27 12:24:12;;;;;;;;;;;;;;;21.60;50.88;101141.72;7395704;19;1397;-78
2024/02/27 12:26:41;;;;;;;;;;;;;;;21.68;50.93;101131.06;7392876;19;1622;-78
2024/02/27 12:29:10;;;;;;;;;;;;;;;21.90;50.62;101137.97;7396515;19;1069;-78
2024/02/27 12:31:41;;;;;;;;;;;;;;;21.83;51.03;101140.41;7398845;19;1680;-78
2024/02/27 12:34:09;;;;;;;;;;;;;;;21.77;51.22;101135.59;7395935;19;1836;-77
2024/02/27 12:36:38;;;;;;;;;;;;;;;21.76;51.31;101136.59;7398009;19;1916;-78
2024/02/27 12:39:06;;;;;;;;;;;;;;;21.82;51.49;101138.69;7394633;19;1857;-78
2024/02/27 12:41:34;;;;;;;;;;;;;;;21.87;51.21;101145.50;7399022;19;1837;-78
2024/02/27 12:44:03;;;;;;;;;;;;;;;21.97;51.17;101141.78;7393189;19;1764;-77
2024/02/27 12:46:31;;;;;;;;;;;;;;;21.96;51.02;101140.06;7395037;19;1216;-78
2024/02/27 12:49:02;;;;;;;;;;;;;;;21.88;51.57;101133.72;7397758;19;1263;-78
2024/02/27 12:51:31;;;;;;;;;;;;;;;21.84;51.78;101131.34;7399131;19;1645;-78
2024/02/27 12:54:00;;;;;;;;;;;;;;;21.80;51.66;101119.16;7398642;19;1262;-78
2024/02/27 12:56:29;;;;;;;;;;;;;;;21.82;51.80;101127.09;7396756;19;1487;-77